Kinoura — 3FHE5 — position and weather

sailwx.info

Track history (hours):
 
Tides and Currents Weather Stations Pressure Air Temp Water Temp Dewpoint Dewpoint Depression Visibility Wind Speed Wind Dir Waves Ship Positions

Kinoura

Last reported at 2015-Aug-13 22:33 UTC. Time now 2015-Sep-05 07:44 UTC.
Position S 26°42' E 153°56'.
Warning: this ship's position is 22 days out of date.

Length 227 m; draft 12.9 m.

Type: Cargo ship. MMSI: 373041000.

Date/timePositionNaut miles runAvg speedWind from/ knotsBaromVisibWave heightAir tempDewpointWater temp
2015-Aug-13 22:33S 26°42' E 153°56'2611.2
2015-Aug-13 20:15S 27°08' E 153°55'2011.2
2015-Aug-13 18:28S 27°28' E 153°54'1111.2
2015-Aug-13 17:28S 27°39' E 153°53'1011.2
2015-Aug-13 16:34S 27°49' E 153°52'290 9.8
2015-Aug-12 11:03S 32°32' E 152°43'510.2
2015-Aug-12 10:34S 32°36' E 152°39'1110.5
2015-Aug-12 09:34S 32°44' E 152°30'1110.6
2015-Aug-12 08:33S 32°50' E 152°20'1211.5
2015-Aug-12 07:33S 32°54' E 152°07'1111.4
2015-Aug-12 06:33S 32°58' E 151°54'7 6.8
2015-Aug-12 05:33S 32°55' E 151°47'2 0.3
2015-Aug-11 22:30S 32°53' E 151°46'0 0.0
2015-Aug-11 16:15S 32°53' E 151°46'0 0.1
2015-Aug-11 15:33S 32°53' E 151°46'0 0.1
2015-Aug-11 14:33S 32°53' E 151°46'1 1.3
2015-Aug-11 13:33S 32°55' E 151°46'6 6.2
2015-Aug-11 12:33S 32°58' E 151°53'17 0.6
2015-Aug-10 05:29S 33°15' E 151°52'5 5.5
2015-Aug-10 04:31S 33°15' E 151°59'3 0.8
2015-Aug-10 00:16S 33°13' E 152°01'2 1.8
2015-Aug-09 23:16S 33°11' E 152°01'2 1.9
2015-Aug-09 22:28S 33°10' E 152°02'2 2.0
2015-Aug-09 21:31S 33°08' E 152°02'2 1.9
2015-Aug-09 20:31S 33°06' E 152°02'2 2.1
2015-Aug-09 19:31S 33°04' E 152°02'2 2.4
2015-Aug-09 18:32S 33°01' E 152°03'2 1.9
2015-Aug-09 17:32S 32°60' E 152°03'2 1.6
2015-Aug-09 16:32S 32°58' E 152°04'2 1.6
2015-Aug-09 15:32S 32°57' E 152°05'2 1.9
2015-Aug-09 14:32S 32°57' E 152°08'2 2.4
2015-Aug-09 13:33S 32°56' E 152°10'2 2.2
2015-Aug-09 12:33S 32°55' E 152°13'2 2.0
2015-Aug-09 11:30S 32°55' E 152°15'1 1.5
2015-Aug-09 10:33S 32°55' E 152°17'1 1.2
2015-Aug-09 09:33S 32°55' E 152°18'1 0.8
2015-Aug-09 08:33S 32°55' E 152°19'1 0.7
2015-Aug-09 07:33S 32°55' E 152°20'1 0.8
2015-Aug-09 06:30S 32°56' E 152°21'1 0.6
2015-Aug-09 05:30S 32°56' E 152°21'6 6.9
2015-Aug-09 04:33S 32°50' E 152°23'1110.8
2015-Aug-09 03:33S 32°39' E 152°25'4 3.5
2015-Aug-09 02:33S 32°36' E 152°27'1 1.5
2015-Aug-09 01:33S 32°37' E 152°27'2 2.0
2015-Aug-09 00:30S 32°39' E 152°27'2 1.8
2015-Aug-08 23:33S 32°41' E 152°27'2 1.9
2015-Aug-08 22:33S 32°43' E 152°27'2 1.6
2015-Aug-08 21:30S 32°44' E 152°27'1 1.2
2015-Aug-08 20:33S 32°45' E 152°28'1 0.9
2015-Aug-08 19:33S 32°46' E 152°28'1 1.1
2015-Aug-08 18:33S 32°47' E 152°29'1 1.0
2015-Aug-08 17:24S 32°47' E 152°31'1 1.1
2015-Aug-08 16:34S 32°47' E 152°32'10 9.6
2015-Aug-08 15:33S 32°39' E 152°38'26811.4
2015-Aug-07 16:09S 28°19' E 153°51'812.2
2015-Aug-07 15:32S 28°12' E 153°52'1212.2
2015-Aug-07 14:33S 27°60' E 153°52'1212.5
2015-Aug-07 13:33S 27°47' E 153°53'3711.8
2015-Aug-07 10:28S 27°11' E 153°54'  
Track history (hours):
 
Tides and Currents Weather Stations Pressure Air Temp Water Temp Dewpoint Dewpoint Depression Visibility Wind Speed Wind Dir Waves Ship Positions

Kinoura

Last reported at 2015-Aug-13 22:33 UTC. Time now 2015-Sep-05 07:44 UTC.
Position S 26°42' E 153°56'.
Warning: this ship's position is 22 days out of date.

Length 227 m; draft 12.9 m.

Type: Cargo ship. MMSI: 373041000.

Date/timePositionNaut miles runAvg speedWind from/ knotsBaromVisibWave heightAir tempDewpointWater temp
2015-Aug-13 22:33S 26°42' E 153°56'2611.2
2015-Aug-13 20:15S 27°08' E 153°55'2011.2
2015-Aug-13 18:28S 27°28' E 153°54'1111.2
2015-Aug-13 17:28S 27°39' E 153°53'1011.2
2015-Aug-13 16:34S 27°49' E 153°52'290 9.8
2015-Aug-12 11:03S 32°32' E 152°43'510.2
2015-Aug-12 10:34S 32°36' E 152°39'1110.5
2015-Aug-12 09:34S 32°44' E 152°30'1110.6
2015-Aug-12 08:33S 32°50' E 152°20'1211.5
2015-Aug-12 07:33S 32°54' E 152°07'1111.4
2015-Aug-12 06:33S 32°58' E 151°54'7 6.8
2015-Aug-12 05:33S 32°55' E 151°47'2 0.3
2015-Aug-11 22:30S 32°53' E 151°46'0 0.0
2015-Aug-11 16:15S 32°53' E 151°46'0 0.1
2015-Aug-11 15:33S 32°53' E 151°46'0 0.1
2015-Aug-11 14:33S 32°53' E 151°46'1 1.3
2015-Aug-11 13:33S 32°55' E 151°46'6 6.2
2015-Aug-11 12:33S 32°58' E 151°53'17 0.6
2015-Aug-10 05:29S 33°15' E 151°52'5 5.5
2015-Aug-10 04:31S 33°15' E 151°59'3 0.8
2015-Aug-10 00:16S 33°13' E 152°01'2 1.8
2015-Aug-09 23:16S 33°11' E 152°01'2 1.9
2015-Aug-09 22:28S 33°10' E 152°02'2 2.0
2015-Aug-09 21:31S 33°08' E 152°02'2 1.9
2015-Aug-09 20:31S 33°06' E 152°02'2 2.1
2015-Aug-09 19:31S 33°04' E 152°02'2 2.4
2015-Aug-09 18:32S 33°01' E 152°03'2 1.9
2015-Aug-09 17:32S 32°60' E 152°03'2 1.6
2015-Aug-09 16:32S 32°58' E 152°04'2 1.6
2015-Aug-09 15:32S 32°57' E 152°05'2 1.9
2015-Aug-09 14:32S 32°57' E 152°08'2 2.4
2015-Aug-09 13:33S 32°56' E 152°10'2 2.2
2015-Aug-09 12:33S 32°55' E 152°13'2 2.0
2015-Aug-09 11:30S 32°55' E 152°15'1 1.5
2015-Aug-09 10:33S 32°55' E 152°17'1 1.2
2015-Aug-09 09:33S 32°55' E 152°18'1 0.8
2015-Aug-09 08:33S 32°55' E 152°19'1 0.7
2015-Aug-09 07:33S 32°55' E 152°20'1 0.8
2015-Aug-09 06:30S 32°56' E 152°21'1 0.6
2015-Aug-09 05:30S 32°56' E 152°21'6 6.9
2015-Aug-09 04:33S 32°50' E 152°23'1110.8
2015-Aug-09 03:33S 32°39' E 152°25'4 3.5
2015-Aug-09 02:33S 32°36' E 152°27'1 1.5
2015-Aug-09 01:33S 32°37' E 152°27'2 2.0
2015-Aug-09 00:30S 32°39' E 152°27'2 1.8
2015-Aug-08 23:33S 32°41' E 152°27'2 1.9
2015-Aug-08 22:33S 32°43' E 152°27'2 1.6
2015-Aug-08 21:30S 32°44' E 152°27'1 1.2
2015-Aug-08 20:33S 32°45' E 152°28'1 0.9
2015-Aug-08 19:33S 32°46' E 152°28'1 1.1
2015-Aug-08 18:33S 32°47' E 152°29'1 1.0
2015-Aug-08 17:24S 32°47' E 152°31'1 1.1
2015-Aug-08 16:34S 32°47' E 152°32'10 9.6
2015-Aug-08 15:33S 32°39' E 152°38'26811.4
2015-Aug-07 16:09S 28°19' E 153°51'812.2
2015-Aug-07 15:32S 28°12' E 153°52'1212.2
2015-Aug-07 14:33S 27°60' E 153°52'1212.5
2015-Aug-07 13:33S 27°47' E 153°53'3711.8
2015-Aug-07 10:28S 27°11' E 153°54'  

Dump ship's entire track history